Time;durP1;ratioP1;P1;durP2;ratioP2;P2;SDS_P1;SDS_P2;PMS_P1;PMS_P2;Temp;Humidity;BMP_temperature;BMP_pressure;BME280_temperature;BME280_humidity;BME280_pressure;Samples;Min_cycle;Max_cycle;Signal;HPM_P1;HPM_P2
2022/06/18 00:00:55;;;;;;;7.68;3.50;;;;;;;;;;5055796;28;20028;-75
2022/06/18 00:03:21;;;;;;;;;;;;;;;;;;5052290;28;20043;-75
2022/06/18 00:05:48;;;;;;;6.70;3.42;;;;;;;;;;5057307;28;20366;-75
2022/06/18 00:08:16;;;;;;;9.10;3.63;;;;;;;;;;5048435;28;20037;-75
2022/06/18 00:10:42;;;;;;;8.23;3.58;;;;;;;;;;5060777;28;20029;-75
2022/06/18 00:15:58;;;;;;;7.00;3.47;;;;;;;;;;5051415;28;20124;-75
2022/06/18 00:18:24;;;;;;;6.50;3.60;;;;;;;;;;5060169;28;20151;-77
2022/06/18 00:20:50;;;;;;;8.90;3.90;;;;;;;;;;5056066;28;20029;-75
2022/06/18 00:23:17;;;;;;;5.43;3.72;;;;;;;;;;5051974;28;20079;-75
2022/06/18 00:25:45;;;;;;;8.32;3.90;;;;;;;;;;5058329;28;20017;-75
2022/06/18 00:28:31;;;;;;;10.68;3.72;;;;;;;;;;5060285;28;20052;-75
2022/06/18 00:30:57;;;;;;;7.18;3.72;;;;;;;;;;5057286;28;20078;-78
2022/06/18 00:33:24;;;;;;;6.90;4.15;;;;;;;;;;5054021;28;20041;-75
2022/06/18 00:35:51;;;;;;;8.25;4.60;;;;;;;;;;5051381;28;20036;-75
2022/06/18 00:38:24;;;;;;;7.50;4.22;;;;;;;;;;5050792;28;20060;-76
2022/06/18 00:40:51;;;;;;;7.90;4.43;;;;;;;;;;5052956;28;20028;-76
2022/06/18 00:43:19;;;;;;;10.20;5.18;;;;;;;;;;5047905;28;20705;-77
2022/06/18 00:45:45;;;;;;;11.38;4.93;;;;;;;;;;5055918;28;20036;-74
2022/06/18 00:48:24;;;;;;;6.35;4.75;;;;;;;;;;5057368;28;20029;-74
2022/06/18 00:50:50;;;;;;;8.13;4.97;;;;;;;;;;5053384;28;20029;-75
2022/06/18 00:53:18;;;;;;;5.75;4.43;;;;;;;;;;5048414;28;20044;-75
2022/06/18 00:55:51;;;;;;;11.05;4.90;;;;;;;;;;5057713;28;20060;-75
2022/06/18 00:58:36;;;;;;;7.97;5.18;;;;;;;;;;5060175;28;20030;-75
2022/06/18 01:01:03;;;;;;;10.07;4.95;;;;;;;;;;5058470;28;20037;-74
2022/06/18 01:03:34;;;;;;;8.27;5.10;;;;;;;;;;5054411;28;20408;-74
2022/06/18 01:06:03;;;;;;;11.13;6.20;;;;;;;;;;5057986;28;20055;-75
2022/06/18 01:08:31;;;;;;;8.90;5.10;;;;;;;;;;5051697;28;20051;-76
2022/06/18 01:10:59;;;;;;;13.52;5.47;;;;;;;;;;5056034;28;20504;-74
2022/06/18 01:13:28;;;;;;;9.02;5.40;;;;;;;;;;5062861;28;20431;-74
2022/06/18 01:15:55;;;;;;;12.25;5.80;;;;;;;;;;5059911;28;20040;-74
2022/06/18 01:18:21;;;;;;;10.52;5.63;;;;;;;;;;5050897;28;20039;-74
2022/06/18 01:20:52;;;;;;;11.07;5.90;;;;;;;;;;5051874;28;20037;-77
2022/06/18 01:23:18;;;;;;;7.47;5.13;;;;;;;;;;5050205;28;20115;-74
2022/06/18 01:25:44;;;;;;;10.75;6.15;;;;;;;;;;5056573;28;20082;-75
2022/06/18 01:28:13;;;;;;;11.68;6.10;;;;;;;;;;5056026;28;20033;-75
2022/06/18 01:30:40;;;;;;;20.23;6.63;;;;;;;;;;5060697;28;20060;-77
2022/06/18 01:33:07;;;;;;;10.65;5.50;;;;;;;;;;5061027;28;20107;-76
2022/06/18 01:35:35;;;;;;;11.38;5.70;;;;;;;;;;5055796;28;20121;-74
2022/06/18 01:38:01;;;;;;;10.05;6.07;;;;;;;;;;5055499;28;20162;-76
2022/06/18 01:40:31;;;;;;;13.98;7.32;;;;;;;;;;5058814;28;20033;-75
2022/06/18 01:42:59;;;;;;;14.05;6.43;;;;;;;;;;5056525;28;20107;-74
2022/06/18 01:45:30;;;;;;;13.10;6.70;;;;;;;;;;5063411;28;20057;-79
2022/06/18 01:48:02;;;;;;;9.43;6.53;;;;;;;;;;5044144;28;20041;-77
2022/06/18 01:50:34;;;;;;;12.10;6.60;;;;;;;;;;5055471;28;20049;-76
2022/06/18 01:53:19;;;;;;;14.70;6.50;;;;;;;;;;5056759;28;20037;-76
2022/06/18 01:55:47;;;;;;;11.13;7.13;;;;;;;;;;5059883;28;20499;-76
2022/06/18 01:58:16;;;;;;;14.23;5.70;;;;;;;;;;5052094;28;20033;-78
2022/06/18 02:00:43;;;;;;;13.38;6.25;;;;;;;;;;5059648;28;20024;-75
2022/06/18 02:03:09;;;;;;;9.55;6.20;;;;;;;;;;5061354;28;20511;-78
2022/06/18 02:05:37;;;;;;;11.80;6.30;;;;;;;;;;5055881;28;20983;-79
2022/06/18 02:08:04;;;;;;;12.90;6.35;;;;;;;;;;5061695;28;20025;-75
2022/06/18 02:10:38;;;;;;;18.65;6.65;;;;;;;;;;5054496;28;20617;-75
2022/06/18 02:13:04;;;;;;;10.65;6.30;;;;;;;;;;5055270;28;20103;-75
2022/06/18 02:15:33;;;;;;;12.88;6.97;;;;;;;;;;5059166;28;20033;-75
2022/06/18 02:18:02;;;;;;;12.38;6.38;;;;;;;;;;5066818;28;20028;-75
2022/06/18 02:20:29;;;;;;;16.77;7.45;;;;;;;;;;5061917;28;20152;-75
2022/06/18 02:22:56;;;;;;;15.55;6.55;;;;;;;;;;5052250;28;20059;-75
2022/06/18 02:25:24;;;;;;;15.13;6.53;;;;;;;;;;5058034;28;20028;-76
2022/06/18 02:27:53;;;;;;;10.10;6.53;;;;;;;;;;5050169;28;20041;-75
2022/06/18 02:30:21;;;;;;;13.52;6.68;;;;;;;;;;5052053;28;20077;-76
2022/06/18 02:32:53;;;;;;;11.98;6.97;;;;;;;;;;5060714;28;20067;-76
2022/06/18 02:35:19;;;;;;;;;;;;;;;;;;5057836;28;20062;-75
2022/06/18 02:37:46;;;;;;;23.50;7.20;;;;;;;;;;5054977;28;19960;-75
2022/06/18 02:40:17;;;;;;;11.93;7.53;;;;;;;;;;5061775;28;20737;-76
2022/06/18 02:42:43;;;;;;;14.70;8.93;;;;;;;;;;5055124;28;20551;-75
2022/06/18 02:45:09;;;;;;;16.52;8.52;;;;;;;;;;5055454;28;20828;-77
2022/06/18 02:47:35;;;;;;;15.32;8.30;;;;;;;;;;5058262;28;20657;-80
2022/06/18 02:50:04;;;;;;;18.42;8.85;;;;;;;;;;5052717;28;20085;-75
2022/06/18 02:52:37;;;;;;;12.52;7.90;;;;;;;;;;5052373;28;20488;-75
2022/06/18 02:55:10;;;;;;;18.50;9.35;;;;;;;;;;5055895;28;20025;-77
2022/06/18 02:57:37;;;;;;;20.30;9.00;;;;;;;;;;5054482;28;20029;-76
2022/06/18 03:00:05;;;;;;;20.33;9.93;;;;;;;;;;5053568;28;20598;-77
2022/06/18 03:02:31;;;;;;;22.25;9.20;;;;;;;;;;5055550;28;20086;-75
2022/06/18 03:04:57;;;;;;;20.27;9.73;;;;;;;;;;5054701;28;20037;-76
2022/06/18 03:07:24;;;;;;;17.45;9.60;;;;;;;;;;5056645;28;20041;-76
2022/06/18 03:12:35;;;;;;;19.92;10.15;;;;;;;;;;5053314;28;20809;-74
2022/06/18 03:15:01;;;;;;;22.40;9.98;;;;;;;;;;5058535;28;20592;-75
2022/06/18 03:17:28;;;;;;;24.45;10.57;;;;;;;;;;5056951;28;20043;-75
2022/06/18 03:19:56;;;;;;;20.67;9.95;;;;;;;;;;5051602;28;20031;-75
2022/06/18 03:22:22;;;;;;;18.38;10.45;;;;;;;;;;5048495;28;20425;-74
2022/06/18 03:24:49;;;;;;;22.17;10.20;;;;;;;;;;5055366;28;20410;-75
2022/06/18 03:27:15;;;;;;;28.15;11.43;;;;;;;;;;5058203;28;20033;-78
2022/06/18 03:29:42;;;;;;;23.70;10.85;;;;;;;;;;5053859;28;20099;-76
2022/06/18 03:32:08;;;;;;;23.67;11.02;;;;;;;;;;5057614;28;20032;-76
2022/06/18 03:34:35;;;;;;;22.90;11.30;;;;;;;;;;5055863;28;20039;-74
2022/06/18 03:37:01;;;;;;;25.70;11.15;;;;;;;;;;5052934;28;20029;-76
2022/06/18 03:39:27;;;;;;;26.13;12.13;;;;;;;;;;5058609;28;20661;-79
2022/06/18 03:41:54;;;;;;;22.08;10.43;;;;;;;;;;5060964;28;20481;-75
2022/06/18 03:44:20;;;;;;;23.85;11.63;;;;;;;;;;5051254;28;20043;-75
2022/06/18 03:46:47;;;;;;;20.50;12.45;;;;;;;;;;5053097;28;20036;-77
2022/06/18 03:49:24;;;;;;;26.73;11.32;;;;;;;;;;5057768;28;20028;-75
2022/06/18 03:51:50;;;;;;;28.42;12.32;;;;;;;;;;5053923;28;20033;-78
2022/06/18 03:54:16;;;;;;;24.08;12.68;;;;;;;;;;5049714;28;20040;-76
2022/06/18 03:56:42;;;;;;;17.55;10.80;;;;;;;;;;5061251;28;20039;-76
2022/06/18 03:59:10;;;;;;;30.80;12.18;;;;;;;;;;5051128;28;20036;-76
2022/06/18 04:01:40;;;;;;;24.58;13.25;;;;;;;;;;5043525;28;20109;-76
2022/06/18 04:04:06;;;;;;;27.80;11.35;;;;;;;;;;5049379;28;20040;-76
2022/06/18 04:06:32;;;;;;;29.98;12.18;;;;;;;;;;5050097;28;20029;-78
2022/06/18 04:08:58;;;;;;;26.10;11.23;;;;;;;;;;5047386;28;20029;-75
2022/06/18 04:11:24;;;;;;;26.17;12.60;;;;;;;;;;5050742;28;20025;-75
2022/06/18 04:13:50;;;;;;;23.05;12.70;;;;;;;;;;5056141;28;20032;-75
2022/06/18 04:16:17;;;;;;;23.08;12.75;;;;;;;;;;5056407;28;20028;-77
2022/06/18 04:18:43;;;;;;;27.85;11.75;;;;;;;;;;5054935;28;20033;-76
2022/06/18 04:21:09;;;;;;;21.63;12.23;;;;;;;;;;5054219;28;20032;-75
2022/06/18 04:23:36;;;;;;;23.83;12.30;;;;;;;;;;5054850;28;20068;-75
2022/06/18 04:26:02;;;;;;;34.03;12.55;;;;;;;;;;5052410;28;20095;-76
2022/06/18 04:28:28;;;;;;;23.83;12.15;;;;;;;;;;5056401;28;20380;-75
2022/06/18 04:30:54;;;;;;;28.33;12.18;;;;;;;;;;5050751;28;20099;-76
2022/06/18 04:33:21;;;;;;;20.05;11.68;;;;;;;;;;5061292;28;20043;-79
2022/06/18 04:35:50;;;;;;;28.25;11.88;;;;;;;;;;5051211;28;20099;-74
2022/06/18 04:38:16;;;;;;;20.50;12.05;;;;;;;;;;5056180;28;20032;-74
2022/06/18 04:40:42;;;;;;;23.42;12.48;;;;;;;;;;5042837;28;20029;-75
2022/06/18 04:43:09;;;;;;;25.17;14.00;;;;;;;;;;5050700;28;20045;-74
2022/06/18 04:45:36;;;;;;;29.48;12.77;;;;;;;;;;5055171;28;20441;-74
2022/06/18 04:48:03;;;;;;;22.13;11.55;;;;;;;;;;5053303;28;20037;-76
2022/06/18 04:50:34;;;;;;;20.55;11.10;;;;;;;;;;5049658;28;20024;-77
2022/06/18 04:53:00;;;;;;;26.52;11.80;;;;;;;;;;5059820;28;20082;-72
2022/06/18 04:55:26;;;;;;;31.50;12.02;;;;;;;;;;5055570;28;20040;-76
2022/06/18 04:57:52;;;;;;;26.83;11.57;;;;;;;;;;5052210;28;20386;-73
2022/06/18 05:00:18;;;;;;;24.77;11.70;;;;;;;;;;5054309;28;20040;-73
2022/06/18 05:02:45;;;;;;;23.48;11.07;;;;;;;;;;5053437;28;20128;-73
2022/06/18 05:05:18;;;;;;;23.92;12.13;;;;;;;;;;5052104;28;20715;-74
2022/06/18 05:07:45;;;;;;;26.15;11.98;;;;;;;;;;5057734;28;20128;-73
2022/06/18 05:10:12;;;;;;;31.02;11.88;;;;;;;;;;5054365;28;20025;-73
2022/06/18 05:12:38;;;;;;;23.10;11.02;;;;;;;;;;5060077;28;20044;-71
2022/06/18 05:15:05;;;;;;;22.52;9.85;;;;;;;;;;5056761;28;20028;-73
2022/06/18 05:17:32;;;;;;;26.77;11.32;;;;;;;;;;5054496;28;20045;-73
2022/06/18 05:19:58;;;;;;;26.05;10.57;;;;;;;;;;5056076;28;20032;-73
2022/06/18 05:22:25;;;;;;;25.38;10.50;;;;;;;;;;5059772;28;20056;-73
2022/06/18 05:24:51;;;;;;;25.33;10.75;;;;;;;;;;5051847;28;20033;-72
2022/06/18 05:27:17;;;;;;;21.63;10.15;;;;;;;;;;5052622;28;20029;-73
2022/06/18 05:29:44;;;;;;;28.63;10.82;;;;;;;;;;5058455;28;20043;-73
2022/06/18 05:32:10;;;;;;;19.38;8.77;;;;;;;;;;5055948;28;20396;-72
2022/06/18 05:34:36;;;;;;;21.88;9.95;;;;;;;;;;5058620;28;20243;-73
2022/06/18 05:37:02;;;;;;;33.08;9.32;;;;;;;;;;5054968;28;20033;-73
2022/06/18 05:39:28;;;;;;;23.95;8.85;;;;;;;;;;5056226;28;20043;-73
2022/06/18 05:41:54;;;;;;;24.85;8.70;;;;;;;;;;5050029;28;20036;-73
2022/06/18 05:44:20;;;;;;;16.73;8.23;;;;;;;;;;5056858;28;20040;-73
2022/06/18 05:46:46;;;;;;;21.13;9.20;;;;;;;;;;5046267;28;20045;-72
2022/06/18 05:49:12;;;;;;;20.38;7.75;;;;;;;;;;5048721;28;20041;-72
2022/06/18 05:51:38;;;;;;;15.65;7.53;;;;;;;;;;5052566;28;20087;-72
2022/06/18 05:54:05;;;;;;;18.40;7.38;;;;;;;;;;5052615;28;20025;-72
2022/06/18 05:56:31;;;;;;;21.05;8.10;;;;;;;;;;5051516;28;20097;-72
2022/06/18 05:58:57;;;;;;;19.95;8.02;;;;;;;;;;5053745;28;20111;-72
2022/06/18 06:01:23;;;;;;;21.05;9.23;;;;;;;;;;5054006;28;20071;-72
2022/06/18 06:03:49;;;;;;;20.23;8.40;;;;;;;;;;5054900;28;20036;-73
2022/06/18 06:06:16;;;;;;;15.18;6.40;;;;;;;;;;5052277;28;20045;-72
2022/06/18 06:08:42;;;;;;;15.80;6.45;;;;;;;;;;5053288;28;20064;-73
2022/06/18 06:13:53;;;;;;;16.60;6.65;;;;;;;;;;5052349;28;20046;-73
2022/06/18 06:16:20;;;;;;;14.30;5.95;;;;;;;;;;5056497;28;20140;-73
2022/06/18 06:18:46;;;;;;;13.98;6.00;;;;;;;;;;5051021;28;20083;-71
2022/06/18 06:21:13;;;;;;;15.48;6.60;;;;;;;;;;5054233;28;20066;-76
2022/06/18 06:23:39;;;;;;;19.65;7.72;;;;;;;;;;5059676;28;20091;-74
2022/06/18 06:26:09;;;;;;;20.70;7.75;;;;;;;;;;5058471;28;20476;-74
2022/06/18 06:28:35;;;;;;;16.17;5.57;;;;;;;;;;5050228;28;20385;-76
2022/06/18 06:31:01;;;;;;;13.45;5.53;;;;;;;;;;5056757;28;20036;-79
2022/06/18 06:33:27;;;;;;;17.15;5.78;;;;;;;;;;5059024;28;20047;-75
2022/06/18 06:35:55;;;;;;;12.77;5.15;;;;;;;;;;5053597;28;20115;-83
2022/06/18 06:38:21;;;;;;;15.48;5.05;;;;;;;;;;5060799;28;20029;-75
2022/06/18 06:40:47;;;;;;;13.60;4.85;;;;;;;;;;5058022;28;20074;-75
2022/06/18 06:43:14;;;;;;;15.60;5.45;;;;;;;;;;5055534;28;20032;-77
2022/06/18 06:45:40;;;;;;;12.02;4.63;;;;;;;;;;5056173;28;20043;-75
2022/06/18 06:48:06;;;;;;;12.18;4.32;;;;;;;;;;5056092;28;20480;-75
2022/06/18 06:50:32;;;;;;;12.05;4.25;;;;;;;;;;5057186;28;20028;-75
2022/06/18 06:52:59;;;;;;;9.00;4.10;;;;;;;;;;5045906;28;20484;-75
2022/06/18 06:58:14;;;;;;;12.63;4.35;;;;;;;;;;5065069;28;20059;-74
2022/06/18 07:00:44;;;;;;;13.00;4.53;;;;;;;;;;5056202;28;20108;-76
2022/06/18 07:03:12;;;;;;;14.00;4.22;;;;;;;;;;5067023;28;20535;-75
2022/06/18 07:05:38;;;;;;;10.05;3.90;;;;;;;;;;5070542;28;20070;-75
2022/06/18 07:08:04;;;;;;;10.32;3.55;;;;;;;;;;5070600;28;20017;-75
2022/06/18 07:10:30;;;;;;;10.23;3.53;;;;;;;;;;5066028;28;20032;-75
2022/06/18 07:12:56;;;;;;;11.23;3.60;;;;;;;;;;5054058;28;20047;-75
2022/06/18 07:15:22;;;;;;;11.63;5.47;;;;;;;;;;5069606;28;20033;-75
2022/06/18 07:17:48;;;;;;;14.27;6.35;;;;;;;;;;5061177;28;20110;-76
2022/06/18 07:20:16;;;;;;;8.10;3.45;;;;;;;;;;5052317;28;20063;-75
2022/06/18 07:22:42;;;;;;;10.32;3.53;;;;;;;;;;5051828;28;20067;-74
2022/06/18 07:25:09;;;;;;;11.90;3.40;;;;;;;;;;5052545;28;20024;-75
2022/06/18 07:27:36;;;;;;;9.80;3.70;;;;;;;;;;5061901;28;20029;-75
2022/06/18 07:30:02;;;;;;;7.50;2.78;;;;;;;;;;5068389;28;20522;-75
2022/06/18 07:32:28;;;;;;;10.73;3.10;;;;;;;;;;5070290;28;20036;-75
2022/06/18 07:34:55;;;;;;;5.28;2.65;;;;;;;;;;5066101;28;20118;-75
2022/06/18 07:37:22;;;;;;;7.47;2.50;;;;;;;;;;5071643;28;20036;-75
2022/06/18 07:39:49;;;;;;;10.50;2.30;;;;;;;;;;5064925;28;20040;-75
2022/06/18 07:42:18;;;;;;;8.05;2.17;;;;;;;;;;5069635;28;20036;-75
2022/06/18 07:44:44;;;;;;;5.07;1.77;;;;;;;;;;5060028;28;20033;-75
2022/06/18 07:47:14;;;;;;;6.63;1.77;;;;;;;;;;5070345;28;20022;-76
2022/06/18 07:49:40;;;;;;;4.50;1.55;;;;;;;;;;5063017;28;20028;-75
2022/06/18 07:52:07;;;;;;;3.15;1.08;;;;;;;;;;5069305;28;20032;-75
2022/06/18 07:54:33;;;;;;;5.13;1.40;;;;;;;;;;5066708;28;20045;-75
2022/06/18 07:56:59;;;;;;;5.78;1.35;;;;;;;;;;5071421;28;20025;-73
2022/06/18 07:59:25;;;;;;;2.28;1.00;;;;;;;;;;5056116;28;20477;-73
2022/06/18 08:01:51;;;;;;;5.57;1.45;;;;;;;;;;5050659;28;20035;-74
2022/06/18 08:04:17;;;;;;;6.30;1.52;;;;;;;;;;5057473;28;20041;-74
2022/06/18 08:06:43;;;;;;;5.80;2.03;;;;;;;;;;5051973;28;20029;-73
2022/06/18 08:09:09;;;;;;;3.53;1.77;;;;;;;;;;5067236;28;20021;-73
2022/06/18 08:11:37;;;;;;;3.00;1.20;;;;;;;;;;5068723;28;20448;-75
2022/06/18 08:14:04;;;;;;;2.60;0.70;;;;;;;;;;5068269;28;20036;-75
2022/06/18 08:16:30;;;;;;;2.53;0.90;;;;;;;;;;5070440;28;20028;-74
2022/06/18 08:18:56;;;;;;;1.40;0.65;;;;;;;;;;5063483;28;20037;-74
2022/06/18 08:21:34;;;;;;;1.98;0.77;;;;;;;;;;5052072;28;20496;-74
2022/06/18 08:24:04;;;;;;;1.48;0.57;;;;;;;;;;5057562;28;20427;-74
2022/06/18 08:26:30;;;;;;;4.50;0.95;;;;;;;;;;5054965;28;20032;-74
2022/06/18 08:28:57;;;;;;;5.05;0.77;;;;;;;;;;5065136;28;20418;-74
2022/06/18 08:31:23;;;;;;;2.40;0.45;;;;;;;;;;5057469;28;20476;-74
2022/06/18 08:33:49;;;;;;;1.65;0.70;;;;;;;;;;5066805;28;20028;-74
2022/06/18 08:36:16;;;;;;;1.38;0.55;;;;;;;;;;5067586;28;20515;-74
2022/06/18 08:38:44;;;;;;;1.23;0.50;;;;;;;;;;5054492;28;20048;-74
2022/06/18 08:41:18;;;;;;;1.23;0.50;;;;;;;;;;5064401;28;20035;-74
2022/06/18 08:43:57;;;;;;;1.25;0.60;;;;;;;;;;5060706;28;20037;-74
2022/06/18 08:46:25;;;;;;;1.73;0.63;;;;;;;;;;5065554;28;20028;-74
2022/06/18 08:49:03;;;;;;;2.85;0.73;;;;;;;;;;5074900;28;20024;-76
2022/06/18 08:51:31;;;;;;;3.03;0.95;;;;;;;;;;5068401;28;20052;-75
2022/06/18 08:54:20;;;;;;;3.78;1.10;;;;;;;;;;5069421;28;20036;-76
2022/06/18 08:56:52;;;;;;;2.97;0.90;;;;;;;;;;5071933;28;20045;-76
2022/06/18 08:59:18;;;;;;;3.35;1.00;;;;;;;;;;5070994;28;20469;-74
2022/06/18 09:02:07;;;;;;;2.67;0.88;;;;;;;;;;5068612;28;20029;-75
2022/06/18 09:04:42;;;;;;;2.30;0.80;;;;;;;;;;5059676;28;20029;-74
2022/06/18 09:07:08;;;;;;;3.70;2.10;;;;;;;;;;5057595;28;20051;-75
2022/06/18 09:09:54;;;;;;;4.55;1.33;;;;;;;;;;5068552;28;20025;-75
2022/06/18 09:12:27;;;;;;;3.80;1.08;;;;;;;;;;5058530;28;20056;-77
2022/06/18 09:15:02;;;;;;;3.45;0.80;;;;;;;;;;5065815;28;20032;-74
2022/06/18 09:17:31;;;;;;;2.22;1.00;;;;;;;;;;5063088;28;20028;-74
2022/06/18 09:20:17;;;;;;;3.80;1.17;;;;;;;;;;5055781;28;20032;-75
2022/06/18 09:22:48;;;;;;;2.58;0.80;;;;;;;;;;5069188;28;20032;-74
2022/06/18 09:25:16;;;;;;;3.72;1.35;;;;;;;;;;5068003;28;20052;-76
2022/06/18 09:27:54;;;;;;;3.72;1.00;;;;;;;;;;5056991;28;20074;-75
2022/06/18 09:30:23;;;;;;;3.28;0.80;;;;;;;;;;5070733;28;20496;-75
2022/06/18 09:33:00;;;;;;;4.28;0.95;;;;;;;;;;5073426;28;20064;-74
2022/06/18 09:35:49;;;;;;;2.13;0.60;;;;;;;;;;5068976;28;20733;-76
2022/06/18 09:38:22;;;;;;;6.70;0.70;;;;;;;;;;5059391;28;20048;-75
2022/06/18 09:40:50;;;;;;;1.90;0.80;;;;;;;;;;5065171;28;20025;-74
2022/06/18 09:43:37;;;;;;;2.80;0.73;;;;;;;;;;5067239;28;20032;-75
2022/06/18 09:46:05;;;;;;;1.95;0.60;;;;;;;;;;5064557;28;20032;-73
2022/06/18 09:48:31;;;;;;;7.10;4.75;;;;;;;;;;5062399;28;20016;-74
2022/06/18 09:50:59;;;;;;;1.92;0.90;;;;;;;;;;5055088;28;20037;-74
2022/06/18 09:53:27;;;;;;;2.47;0.80;;;;;;;;;;5067714;28;20036;-73
2022/06/18 09:55:56;;;;;;;2.00;0.80;;;;;;;;;;5056634;28;20063;-73
2022/06/18 09:58:24;;;;;;;1.20;0.50;;;;;;;;;;5057062;28;20579;-75
2022/06/18 10:00:53;;;;;;;2.55;0.50;;;;;;;;;;5068915;28;20095;-75
2022/06/18 10:08:54;;;;;;;2.05;0.70;;;;;;;;;;5070261;28;20047;-75
2022/06/18 10:11:22;;;;;;;1.85;0.70;;;;;;;;;;5066070;28;20535;-75
2022/06/18 10:14:00;;;;;;;3.03;1.08;;;;;;;;;;5071792;28;20556;-75
2022/06/18 10:16:41;;;;;;;3.15;0.90;;;;;;;;;;5050968;28;20029;-75
2022/06/18 10:19:07;;;;;;;4.65;0.95;;;;;;;;;;5054677;28;20037;-75
2022/06/18 10:21:46;;;;;;;3.08;1.40;;;;;;;;;;5067946;28;20029;-75
2022/06/18 10:24:20;;;;;;;3.92;1.23;;;;;;;;;;5065160;28;20049;-77
2022/06/18 10:26:58;;;;;;;3.97;1.00;;;;;;;;;;5061790;28;20035;-75
2022/06/18 10:29:33;;;;;;;3.75;0.93;;;;;;;;;;5071731;28;20119;-75
2022/06/18 10:32:07;;;;;;;1.92;0.55;;;;;;;;;;5058472;28;20051;-75
2022/06/18 10:34:55;;;;;;;1.42;0.55;;;;;;;;;;5060073;28;20028;-74
2022/06/18 10:37:41;;;;;;;4.28;0.90;;;;;;;;;;5061459;28;20119;-74
2022/06/18 10:40:25;;;;;;;2.58;0.82;;;;;;;;;;5050928;28;20397;-74
2022/06/18 10:43:14;;;;;;;1.90;0.60;;;;;;;;;;5062721;28;20055;-75
2022/06/18 10:45:42;;;;;;;2.42;0.90;;;;;;;;;;5060644;28;20040;-76
2022/06/18 10:48:13;;;;;;;3.15;0.65;;;;;;;;;;5065485;28;20158;-76
2022/06/18 10:50:43;;;;;;;4.15;0.93;;;;;;;;;;5068953;28;20021;-75
2022/06/18 10:53:12;;;;;;;2.95;0.73;;;;;;;;;;5062157;28;20381;-77
2022/06/18 10:55:38;;;;;;;2.33;0.90;;;;;;;;;;5059427;28;20025;-74
2022/06/18 10:58:10;;;;;;;4.40;0.85;;;;;;;;;;5058520;28;20021;-75
2022/06/18 11:00:36;;;;;;;4.68;1.98;;;;;;;;;;5059432;28;20029;-75
2022/06/18 11:03:04;;;;;;;2.05;0.65;;;;;;;;;;5060622;28;20029;-74
2022/06/18 11:05:32;;;;;;;3.47;0.68;;;;;;;;;;5062078;28;20036;-74
2022/06/18 11:08:00;;;;;;;1.95;0.57;;;;;;;;;;5062758;28;20024;-74
2022/06/18 11:10:35;;;;;;;5.47;0.60;;;;;;;;;;5054861;28;20051;-74
2022/06/18 11:13:02;;;;;;;3.22;0.90;;;;;;;;;;5071056;28;20427;-74
2022/06/18 11:15:37;;;;;;;3.03;0.63;;;;;;;;;;5052625;28;20077;-72
2022/06/18 11:18:14;;;;;;;1.95;0.47;;;;;;;;;;5058573;28;20037;-73
2022/06/18 11:20:40;;;;;;;2.60;0.50;;;;;;;;;;5062141;28;20032;-73
2022/06/18 11:23:16;;;;;;;1.88;0.50;;;;;;;;;;5060588;28;20048;-74
2022/06/18 11:25:42;;;;;;;2.03;0.80;;;;;;;;;;5058477;28;20086;-74
2022/06/18 11:28:16;;;;;;;3.95;1.92;;;;;;;;;;5061051;28;20037;-73
2022/06/18 11:30:44;;;;;;;2.85;2.05;;;;;;;;;;5066636;28;20869;-72
2022/06/18 11:33:37;;;;;;;3.30;0.80;;;;;;;;;;5053659;28;20064;-80
2022/06/18 11:36:11;;;;;;;1.67;0.57;;;;;;;;;;5060392;28;20040;-72
2022/06/18 11:38:38;;;;;;;1.33;0.47;;;;;;;;;;5054716;28;20023;-73
2022/06/18 11:41:16;;;;;;;2.10;0.50;;;;;;;;;;5063625;28;20074;-72
2022/06/18 11:43:42;;;;;;;4.03;0.80;;;;;;;;;;5060204;28;20032;-72
2022/06/18 11:46:10;;;;;;;1.85;0.80;;;;;;;;;;5071599;28;20046;-73
2022/06/18 11:48:42;;;;;;;4.35;1.08;;;;;;;;;;5071252;28;20024;-73
2022/06/18 11:51:08;;;;;;;3.83;0.55;;;;;;;;;;5070440;28;20052;-72
2022/06/18 11:53:40;;;;;;;2.35;0.68;;;;;;;;;;5070429;28;20052;-73
2022/06/18 11:56:12;;;;;;;2.67;0.80;;;;;;;;;;5071389;28;20024;-72
2022/06/18 11:58:56;;;;;;;1.27;0.52;;;;;;;;;;5069882;28;20118;-72
2022/06/18 12:01:44;;;;;;;3.30;0.95;;;;;;;;;;5065477;28;20028;-72
2022/06/18 12:04:31;;;;;;;3.08;0.90;;;;;;;;;;5073830;28;20056;-72
2022/06/18 12:07:04;;;;;;;4.47;1.10;;;;;;;;;;5056495;28;20055;-73
2022/06/18 12:09:32;;;;;;;3.17;0.70;;;;;;;;;;5066179;28;20085;-73
2022/06/18 12:12:04;;;;;;;4.78;1.05;;;;;;;;;;5067797;28;20045;-73
2022/06/18 12:14:51;;;;;;;5.03;0.90;;;;;;;;;;5066509;28;20078;-72
2022/06/18 12:17:17;;;;;;;3.90;1.10;;;;;;;;;;5060454;28;20499;-73
2022/06/18 12:20:02;;;;;;;4.47;0.80;;;;;;;;;;5058051;28;20032;-72
2022/06/18 12:22:28;;;;;;;3.72;0.70;;;;;;;;;;5069795;28;20476;-72
2022/06/18 12:25:00;;;;;;;3.88;0.60;;;;;;;;;;5059233;28;20045;-72
2022/06/18 12:27:31;;;;;;;3.15;0.80;;;;;;;;;;5037031;28;20131;-72
2022/06/18 12:30:03;;;;;;;3.45;1.15;;;;;;;;;;5063357;28;20060;-71
2022/06/18 12:32:35;;;;;;;5.90;1.30;;;;;;;;;;5059033;28;20029;-72
2022/06/18 12:35:01;;;;;;;4.60;1.08;;;;;;;;;;5050928;28;21944;-71
2022/06/18 12:37:35;;;;;;;6.65;1.88;;;;;;;;;;5069528;28;20040;-72
2022/06/18 12:40:16;;;;;;;6.95;1.63;;;;;;;;;;5070798;28;20029;-72
2022/06/18 12:43:05;;;;;;;5.80;1.30;;;;;;;;;;5056201;28;20365;-72
2022/06/18 12:45:44;;;;;;;4.32;1.00;;;;;;;;;;5061554;28;20028;-72
2022/06/18 12:48:29;;;;;;;2.38;0.93;;;;;;;;;;5049946;28;20051;-72
2022/06/18 12:51:09;;;;;;;7.60;1.20;;;;;;;;;;5053652;28;20949;-73
2022/06/18 12:53:35;;;;;;;6.10;1.52;;;;;;;;;;5068875;28;20115;-72
2022/06/18 12:56:12;;;;;;;6.78;1.40;;;;;;;;;;5069758;28;20094;-72
2022/06/18 12:58:46;;;;;;;5.38;1.30;;;;;;;;;;5058403;28;20037;-73
2022/06/18 13:01:16;;;;;;;5.90;1.15;;;;;;;;;;5046655;28;20124;-72
2022/06/18 13:04:01;;;;;;;5.53;1.08;;;;;;;;;;5042763;28;20102;-72
2022/06/18 13:06:49;;;;;;;6.45;1.80;;;;;;;;;;5057135;28;20037;-72
2022/06/18 13:09:15;;;;;;;5.10;1.40;;;;;;;;;;5066781;28;20025;-72
2022/06/18 13:12:01;;;;;;;9.43;2.17;;;;;;;;;;5060014;28;20040;-72
2022/06/18 13:14:35;;;;;;;7.40;1.40;;;;;;;;;;5056450;28;20032;-72
2022/06/18 13:17:06;;;;;;;8.90;1.83;;;;;;;;;;5070731;28;20032;-72
2022/06/18 13:19:35;;;;;;;5.57;1.50;;;;;;;;;;5068107;28;20039;-72
2022/06/18 13:22:04;;;;;;;7.95;1.95;;;;;;;;;;5065001;28;20468;-72
2022/06/18 13:30:13;;;;;;;10.48;2.05;;;;;;;;;;5066996;28;20128;-72
2022/06/18 13:32:39;;;;;;;8.18;1.40;;;;;;;;;;5054504;28;20370;-73
2022/06/18 13:35:13;;;;;;;8.32;1.88;;;;;;;;;;5064078;28;20032;-72
2022/06/18 13:37:48;;;;;;;9.48;1.70;;;;;;;;;;5073872;28;20025;-71
2022/06/18 13:40:24;;;;;;;10.10;1.70;;;;;;;;;;5074105;28;20111;-71
2022/06/18 13:43:09;;;;;;;8.65;1.75;;;;;;;;;;5058480;28;20037;-72
2022/06/18 13:45:35;;;;;;;8.55;1.70;;;;;;;;;;5067670;28;20502;-71
2022/06/18 13:48:30;;;;;;;9.63;1.80;;;;;;;;;;5053345;28;20040;-71
2022/06/18 13:50:57;;;;;;;11.13;2.00;;;;;;;;;;5052384;28;20128;-72
2022/06/18 13:53:23;;;;;;;10.45;2.25;;;;;;;;;;5069596;28;20086;-71
2022/06/18 13:55:49;;;;;;;9.73;1.85;;;;;;;;;;5070245;28;20029;-72
2022/06/18 13:58:23;;;;;;;8.05;1.80;;;;;;;;;;5056264;28;20700;-72
2022/06/18 14:00:50;;;;;;;10.35;2.20;;;;;;;;;;5052070;28;20040;-72
2022/06/18 14:03:22;;;;;;;8.73;1.98;;;;;;;;;;5068228;28;20457;-72
2022/06/18 14:05:48;;;;;;;;;;;;;;;;;;5048017;28;20138;-73
2022/06/18 14:08:25;;;;;;;9.80;1.52;;;;;;;;;;5054439;28;19974;-75
2022/06/18 14:10:51;;;;;;;11.73;2.05;;;;;;;;;;5061368;28;20032;-82
2022/06/18 14:13:21;;;;;;;11.13;1.92;;;;;;;;;;5057810;28;20036;-74
2022/06/18 14:15:55;;;;;;;5.57;1.70;;;;;;;;;;5045282;28;20029;-74
2022/06/18 14:18:22;;;;;;;5.28;1.65;;;;;;;;;;5065606;28;20059;-73
2022/06/18 14:20:57;;;;;;;6.50;1.90;;;;;;;;;;5067150;28;20044;-77
2022/06/18 14:23:29;;;;;;;9.60;1.55;;;;;;;;;;5061475;28;20117;-75
2022/06/18 14:25:58;;;;;;;7.70;1.90;;;;;;;;;;5066479;28;20025;-75
2022/06/18 14:28:26;;;;;;;6.70;1.77;;;;;;;;;;5063509;28;20048;-74
2022/06/18 14:30:58;;;;;;;8.52;2.40;;;;;;;;;;5053648;28;20119;-74
2022/06/18 14:33:29;;;;;;;7.80;2.33;;;;;;;;;;5046553;28;20033;-77
2022/06/18 14:36:14;;;;;;;12.05;5.20;;;;;;;;;;5051040;28;20033;-79
2022/06/18 14:38:40;;;;;;;7.70;1.90;;;;;;;;;;5049090;28;20036;-71
2022/06/18 14:43:53;;;;;;;7.07;1.52;;;;;;;;;;5047481;28;20562;-74
2022/06/18 14:46:22;;;;;;;6.13;1.48;;;;;;;;;;5036994;28;20043;-73
2022/06/18 14:49:17;;;;;;;7.75;1.25;;;;;;;;;;5068561;28;20028;-75
2022/06/18 14:52:02;;;;;;;8.23;2.08;;;;;;;;;;5057354;28;20035;-73
2022/06/18 14:54:28;;;;;;;6.70;1.60;;;;;;;;;;5072438;28;20476;-72
2022/06/18 14:57:06;;;;;;;3.72;1.15;;;;;;;;;;5063837;28;20362;-73
2022/06/18 14:59:55;;;;;;;5.55;1.23;;;;;;;;;;5061847;28;20364;-73
2022/06/18 15:02:21;;;;;;;6.35;1.10;;;;;;;;;;5057590;28;20388;-73
2022/06/18 15:04:52;;;;;;;4.90;1.40;;;;;;;;;;5055949;28;20025;-73
2022/06/18 15:07:18;;;;;;;7.07;1.55;;;;;;;;;;5049981;28;20075;-74
2022/06/18 15:09:49;;;;;;;4.60;1.27;;;;;;;;;;5053432;28;20095;-74
2022/06/18 15:12:15;;;;;;;7.43;1.40;;;;;;;;;;5055004;28;20040;-74
2022/06/18 15:14:44;;;;;;;3.28;1.08;;;;;;;;;;5063385;28;20072;-74
2022/06/18 15:19:59;;;;;;;9.77;2.30;;;;;;;;;;5061951;28;20037;-74